createdAt,value
2022-10-19T00:00:14.185Z,39.90
2022-10-19T00:02:31.131Z,31.98
2022-10-19T00:04:48.240Z,36.20
2022-10-19T00:07:05.569Z,31.38
2022-10-19T00:09:23.506Z,35.58
2022-10-19T00:11:40.600Z,35.42
2022-10-19T00:13:58.477Z,37.95
2022-10-19T00:16:15.568Z,35.10
2022-10-19T00:18:33.965Z,37.15
2022-10-19T00:20:50.805Z,34.97
2022-10-19T00:23:08.177Z,33.30
2022-10-19T00:25:25.838Z,32.75
2022-10-19T00:27:43.120Z,41.25
2022-10-19T00:30:00.443Z,36.00
2022-10-19T00:32:18.534Z,41.38
2022-10-19T00:34:37.221Z,52.22
2022-10-19T00:36:54.441Z,45.40
2022-10-19T00:39:11.783Z,42.75
2022-10-19T00:41:29.077Z,48.47
2022-10-19T00:43:46.055Z,53.15
2022-10-19T00:46:04.303Z,39.92
2022-10-19T00:48:21.263Z,44.60
2022-10-19T00:50:38.289Z,40.80
2022-10-19T00:52:55.269Z,41.95
2022-10-19T00:55:12.228Z,44.97
2022-10-19T00:57:29.240Z,45.60
2022-10-19T00:59:46.355Z,47.63
2022-10-19T01:02:03.339Z,39.72
2022-10-19T01:04:20.284Z,45.78
2022-10-19T01:06:38.301Z,46.08
2022-10-19T01:08:55.476Z,39.42
2022-10-19T01:11:13.760Z,43.80
2022-10-19T01:13:32.026Z,39.55
2022-10-19T01:15:49.317Z,44.67
2022-10-19T01:18:06.422Z,45.33
2022-10-19T01:20:23.655Z,42.75
2022-10-19T01:22:40.968Z,43.80
2022-10-19T01:24:58.267Z,40.75
2022-10-19T01:27:15.557Z,40.78
2022-10-19T01:29:32.756Z,40.22
2022-10-19T01:31:49.990Z,44.45
2022-10-19T01:34:07.104Z,50.17
2022-10-19T01:36:24.113Z,53.95
2022-10-19T01:38:41.433Z,49.30
2022-10-19T01:40:58.763Z,47.10
2022-10-19T01:43:15.791Z,45.92
2022-10-19T01:45:34.033Z,46.30
2022-10-19T01:47:51.083Z,48.65
2022-10-19T01:50:08.011Z,41.83
2022-10-19T01:52:25.312Z,45.28
2022-10-19T01:54:42.314Z,38.92
2022-10-19T01:57:00.183Z,42.78
2022-10-19T01:59:17.451Z,51.22
2022-10-19T02:01:34.696Z,50.28
2022-10-19T02:03:51.740Z,46.00
2022-10-19T02:06:08.760Z,43.72
2022-10-19T02:08:25.994Z,52.30
2022-10-19T02:10:43.239Z,49.42
2022-10-19T02:13:00.107Z,49.00
2022-10-19T02:15:17.168Z,50.35
2022-10-19T02:17:34.138Z,56.00
2022-10-19T02:19:51.058Z,53.58
2022-10-19T02:22:07.912Z,47.28
2022-10-19T02:24:25.108Z,42.50
2022-10-19T02:26:42.117Z,49.00
2022-10-19T02:28:59.010Z,49.35
2022-10-19T02:31:16.106Z,42.90
2022-10-19T02:33:33.340Z,51.70
2022-10-19T02:35:51.250Z,47.33
2022-10-19T02:38:08.281Z,51.78
2022-10-19T02:40:26.251Z,48.55
2022-10-19T02:42:43.182Z,48.78
2022-10-19T02:45:00.231Z,49.78
2022-10-19T02:47:17.555Z,45.35
2022-10-19T02:49:34.880Z,55.95
2022-10-19T02:51:52.208Z,50.30
2022-10-19T02:54:09.445Z,46.60
2022-10-19T02:56:26.512Z,49.47
2022-10-19T02:58:43.454Z,49.35
2022-10-19T03:01:00.454Z,52.10
2022-10-19T03:03:17.525Z,51.30
2022-10-19T03:05:34.599Z,48.67
2022-10-19T03:07:51.460Z,49.83
2022-10-19T03:10:08.443Z,49.97
2022-10-19T03:12:26.710Z,53.70
2022-10-19T03:14:43.970Z,52.80
2022-10-19T03:17:00.930Z,59.58
2022-10-19T03:19:18.050Z,61.28
2022-10-19T03:21:36.002Z,53.40
2022-10-19T03:23:52.986Z,61.47
2022-10-19T03:26:12.180Z,50.33
2022-10-19T03:28:29.810Z,51.63
2022-10-19T03:30:46.841Z,58.83
2022-10-19T03:33:04.388Z,59.65
2022-10-19T03:35:21.325Z,60.58
2022-10-19T03:37:38.357Z,53.60
2022-10-19T03:39:55.348Z,59.53
2022-10-19T03:42:12.411Z,56.92
2022-10-19T03:44:29.346Z,49.70
2022-10-19T03:46:46.219Z,59.58
2022-10-19T03:49:03.277Z,55.70
2022-10-19T03:51:20.563Z,57.20
2022-10-19T03:53:38.238Z,53.50
2022-10-19T03:55:55.196Z,59.53
2022-10-19T03:58:12.325Z,70.15
2022-10-19T04:00:29.607Z,64.10
2022-10-19T04:02:46.833Z,59.83
2022-10-19T04:05:04.185Z,57.85
2022-10-19T04:07:22.209Z,57.17
2022-10-19T04:09:39.178Z,54.47
2022-10-19T04:11:56.543Z,59.28
2022-10-19T04:14:19.300Z,63.20
2022-10-19T04:16:44.113Z,57.97
2022-10-19T04:19:01.468Z,61.83
2022-10-19T04:21:19.646Z,60.72
2022-10-19T04:23:37.614Z,52.95
2022-10-19T04:25:54.617Z,45.95
2022-10-19T04:28:11.620Z,67.30
2022-10-19T04:30:28.832Z,55.90
2022-10-19T04:32:46.113Z,63.85
2022-10-19T04:35:03.429Z,52.30
2022-10-19T04:37:20.677Z,58.97
2022-10-19T04:39:37.705Z,61.28
2022-10-19T04:41:54.686Z,53.13
2022-10-19T04:44:12.078Z,56.58
2022-10-19T04:46:29.173Z,56.88
2022-10-19T04:48:47.191Z,64.57
2022-10-19T04:51:04.512Z,62.55
2022-10-19T04:53:21.582Z,56.97
2022-10-19T04:55:38.778Z,65.97
2022-10-19T04:57:56.113Z,58.65
2022-10-19T05:00:13.998Z,68.43
2022-10-19T05:02:31.082Z,56.42
2022-10-19T05:04:48.066Z,51.70
2022-10-19T05:07:05.160Z,47.25
2022-10-19T05:09:22.472Z,54.85
2022-10-19T05:11:39.791Z,46.53
2022-10-19T05:13:56.843Z,52.13
2022-10-19T05:16:13.978Z,44.13
2022-10-19T05:18:31.224Z,39.90
2022-10-19T05:20:48.556Z,46.55
2022-10-19T05:23:07.348Z,47.13
2022-10-19T05:25:24.534Z,38.15
2022-10-19T05:27:41.800Z,44.22
2022-10-19T05:29:59.049Z,55.33
2022-10-19T05:32:16.308Z,44.03
2022-10-19T05:34:33.500Z,47.47
2022-10-19T05:36:50.493Z,43.38
2022-10-19T05:39:07.364Z,45.50
2022-10-19T05:41:24.339Z,48.85
2022-10-19T05:43:41.577Z,45.70
2022-10-19T05:45:58.562Z,52.45
2022-10-19T05:48:15.838Z,46.75
2022-10-19T05:50:33.129Z,41.63
2022-10-19T05:52:50.067Z,49.25
2022-10-19T05:55:07.014Z,34.25
2022-10-19T05:57:24.029Z,44.45
2022-10-19T05:59:40.955Z,47.50
2022-10-19T06:01:57.885Z,35.60
2022-10-19T06:06:37.967Z,32.53
2022-10-19T06:08:55.148Z,37.33
2022-10-19T06:11:12.059Z,37.05
2022-10-19T06:13:30.382Z,30.33
2022-10-19T06:15:47.281Z,30.45
2022-10-19T06:18:04.213Z,30.02
2022-10-19T06:20:21.114Z,32.58
2022-10-19T06:22:38.249Z,32.13
2022-10-19T06:24:55.447Z,29.50
2022-10-19T06:27:12.374Z,32.08
2022-10-19T06:29:29.345Z,35.08
2022-10-19T06:31:46.312Z,30.95
2022-10-19T06:34:04.590Z,30.95
2022-10-19T06:36:21.551Z,38.15
2022-10-19T06:38:38.628Z,33.00
2022-10-19T06:40:55.530Z,34.95
2022-10-19T06:43:12.486Z,39.03
2022-10-19T06:45:32.257Z,37.22
2022-10-19T06:47:53.048Z,35.80
2022-10-19T06:50:10.081Z,34.33
2022-10-19T06:52:27.316Z,37.33
2022-10-19T06:54:44.389Z,34.20
2022-10-19T06:57:01.736Z,32.30
2022-10-19T06:59:18.677Z,33.50
2022-10-19T07:01:35.998Z,31.65
2022-10-19T07:03:53.047Z,34.38
2022-10-19T07:06:10.147Z,32.00
2022-10-19T07:08:27.077Z,39.67
2022-10-19T07:10:45.187Z,36.75
2022-10-19T07:13:02.102Z,34.72
2022-10-19T07:15:19.188Z,30.48
2022-10-19T07:17:37.162Z,31.00
2022-10-19T07:19:55.476Z,33.92
2022-10-19T07:22:18.611Z,33.00
2022-10-19T07:24:37.352Z,30.67
2022-10-19T07:26:54.590Z,30.88
2022-10-19T07:29:11.607Z,30.38
2022-10-19T07:31:28.611Z,33.95
2022-10-19T07:33:45.872Z,34.40
2022-10-19T07:36:04.339Z,35.53
2022-10-19T07:38:21.595Z,26.45
2022-10-19T07:40:40.025Z,31.35
2022-10-19T07:42:59.817Z,33.72
2022-10-19T07:45:16.807Z,29.15
2022-10-19T07:47:34.085Z,30.85
2022-10-19T07:49:51.437Z,32.30
2022-10-19T07:52:08.698Z,31.42
2022-10-19T07:54:27.055Z,33.25
2022-10-19T07:56:43.977Z,29.67
2022-10-19T07:59:02.190Z,27.48
2022-10-19T08:01:20.057Z,32.15
2022-10-19T08:06:14.268Z,29.52
2022-10-19T08:08:31.356Z,30.67
2022-10-19T08:10:49.339Z,30.60
2022-10-19T08:13:07.599Z,33.55
2022-10-19T08:15:24.616Z,27.80
2022-10-19T08:17:41.629Z,31.38
2022-10-19T08:19:58.663Z,29.50
2022-10-19T08:22:15.848Z,33.95
2022-10-19T08:24:32.938Z,33.38
2022-10-19T08:26:49.978Z,27.23
2022-10-19T08:29:06.965Z,27.20
2022-10-19T08:31:23.982Z,29.85
2022-10-19T08:33:41.253Z,31.65
2022-10-19T08:35:58.250Z,29.67
2022-10-19T08:38:15.144Z,25.23
2022-10-19T08:40:32.416Z,28.38
2022-10-19T08:42:49.446Z,29.52
2022-10-19T08:45:06.472Z,28.65
2022-10-19T08:47:24.299Z,23.88
2022-10-19T08:49:41.378Z,24.95
2022-10-19T08:51:59.556Z,25.45
2022-10-19T08:54:16.850Z,27.08
2022-10-19T08:56:51.383Z,25.90
2022-10-19T08:59:08.860Z,26.13
2022-10-19T09:01:25.855Z,24.45
2022-10-19T09:03:57.982Z,26.58
2022-10-19T09:06:15.773Z,29.48
2022-10-19T09:08:32.720Z,29.50
2022-10-19T09:10:49.991Z,25.45
2022-10-19T09:13:07.066Z,27.20
2022-10-19T09:15:24.093Z,26.90
2022-10-19T09:17:42.433Z,23.42
2022-10-19T09:19:59.568Z,24.10
2022-10-19T09:22:16.804Z,24.13
2022-10-19T09:24:33.775Z,30.02
2022-10-19T09:26:51.081Z,20.77
2022-10-19T09:29:08.077Z,22.67
2022-10-19T09:31:27.110Z,25.73
2022-10-19T09:33:46.194Z,23.23
2022-10-19T09:36:03.134Z,24.50
2022-10-19T09:38:20.069Z,24.23
2022-10-19T09:40:37.003Z,23.75
2022-10-19T09:42:54.004Z,25.10
2022-10-19T09:45:10.941Z,22.80
2022-10-19T09:47:27.942Z,28.13
2022-10-19T09:49:44.960Z,27.00
2022-10-19T09:52:01.889Z,26.70
2022-10-19T09:54:18.863Z,26.48
2022-10-19T09:56:35.893Z,27.00
2022-10-19T09:58:53.102Z,23.63
2022-10-19T10:01:09.964Z,24.65
2022-10-19T10:03:26.930Z,22.27
2022-10-19T10:05:43.914Z,25.05
2022-10-19T10:08:01.203Z,22.08
2022-10-19T10:10:18.437Z,25.73
2022-10-19T10:12:35.699Z,20.02
2022-10-19T10:14:53.325Z,21.63
2022-10-19T10:17:10.256Z,23.50
2022-10-19T10:19:27.365Z,24.25
2022-10-19T10:21:44.634Z,20.98
2022-10-19T10:24:01.650Z,21.75
2022-10-19T10:26:18.921Z,16.98
2022-10-19T10:28:35.829Z,25.55
2022-10-19T10:30:52.770Z,21.00
2022-10-19T10:33:26.419Z,23.45
2022-10-19T10:35:44.160Z,22.25
2022-10-19T10:38:01.084Z,26.33
2022-10-19T10:40:22.598Z,17.25
2022-10-19T10:42:40.668Z,19.55
2022-10-19T10:44:58.611Z,21.70
2022-10-19T10:47:15.598Z,21.58
2022-10-19T10:49:32.945Z,19.50
2022-10-19T10:51:52.881Z,21.85
2022-10-19T10:54:11.312Z,17.75
2022-10-19T10:56:28.526Z,17.98
2022-10-19T10:58:45.551Z,20.13
2022-10-19T11:01:06.645Z,25.85
2022-10-19T11:03:24.876Z,19.05
2022-10-19T11:05:41.899Z,18.67
2022-10-19T11:07:58.839Z,16.77
2022-10-19T11:10:15.881Z,21.10
2022-10-19T11:12:35.137Z,21.70
2022-10-19T11:14:52.646Z,27.25
2022-10-19T11:17:09.585Z,20.17
2022-10-19T11:19:26.926Z,17.70
2022-10-19T11:21:44.961Z,19.30
2022-10-19T11:24:02.290Z,20.45
2022-10-19T11:26:19.497Z,17.35
2022-10-19T11:28:36.514Z,15.27
2022-10-19T11:30:53.713Z,20.15
2022-10-19T11:33:10.668Z,14.05
2022-10-19T11:35:27.721Z,16.58
2022-10-19T11:37:50.271Z,14.73
2022-10-19T11:40:23.117Z,16.30
2022-10-19T11:42:40.001Z,16.83
2022-10-19T11:44:57.207Z,16.17
2022-10-19T11:47:14.125Z,20.13
2022-10-19T11:49:31.157Z,13.93
2022-10-19T11:51:48.299Z,13.50
2022-10-19T11:54:05.521Z,14.68
2022-10-19T11:56:25.233Z,18.20
2022-10-19T11:58:52.702Z,15.40
2022-10-19T12:01:10.021Z,16.08
2022-10-19T12:03:27.055Z,18.52
2022-10-19T12:05:45.017Z,16.08
2022-10-19T12:08:01.930Z,15.15
2022-10-19T12:10:18.851Z,15.73
2022-10-19T12:12:36.415Z,16.65
2022-10-19T12:14:53.681Z,19.80
2022-10-19T12:17:10.713Z,12.50
2022-10-19T12:19:28.025Z,16.00
2022-10-19T12:21:45.055Z,16.08
2022-10-19T12:24:02.044Z,17.02
2022-10-19T12:28:40.934Z,16.02
2022-10-19T12:30:57.868Z,15.23
2022-10-19T12:33:15.864Z,13.15
2022-10-19T12:35:32.804Z,14.40
2022-10-19T12:37:49.791Z,18.02
2022-10-19T12:40:06.865Z,15.15
2022-10-19T12:42:24.118Z,17.13
2022-10-19T12:44:40.986Z,15.43
2022-10-19T12:47:00.852Z,20.92
2022-10-19T12:49:18.374Z,18.65
2022-10-19T12:51:35.386Z,16.05
2022-10-19T12:53:52.719Z,18.73
2022-10-19T12:56:09.739Z,16.75
2022-10-19T12:58:26.607Z,15.20
2022-10-19T13:00:43.951Z,21.00
2022-10-19T13:03:01.043Z,17.27
2022-10-19T13:05:18.539Z,18.38
2022-10-19T13:07:35.744Z,17.80
2022-10-19T13:09:53.253Z,20.10
2022-10-19T13:12:10.548Z,17.33
2022-10-19T13:14:27.773Z,15.18
2022-10-19T13:16:46.068Z,18.27
2022-10-19T13:19:03.402Z,16.67
2022-10-19T13:21:22.772Z,20.40
2022-10-19T13:23:40.087Z,19.85
2022-10-19T13:25:57.185Z,16.63
2022-10-19T13:28:14.671Z,16.65
2022-10-19T13:30:31.574Z,16.13
2022-10-19T13:32:48.631Z,17.08
2022-10-19T13:35:06.873Z,18.00
2022-10-19T13:37:24.174Z,18.27
2022-10-19T13:39:42.168Z,15.45
2022-10-19T13:41:59.147Z,21.23
2022-10-19T13:44:16.868Z,15.32
2022-10-19T13:46:34.131Z,14.77
2022-10-19T13:48:51.468Z,16.95
2022-10-19T13:51:09.757Z,17.20
2022-10-19T13:53:27.990Z,15.75
2022-10-19T13:55:47.340Z,18.20
2022-10-19T13:58:05.482Z,17.00
2022-10-19T14:00:22.803Z,14.10
2022-10-19T14:02:39.781Z,17.27
2022-10-19T14:04:56.971Z,20.08
2022-10-19T14:07:13.956Z,15.43
2022-10-19T14:09:31.268Z,16.70
2022-10-19T14:11:48.303Z,18.35
2022-10-19T14:14:05.634Z,17.50
2022-10-19T14:16:22.718Z,19.27
2022-10-19T14:18:39.990Z,17.70
2022-10-19T14:20:57.356Z,16.67
2022-10-19T14:23:15.698Z,13.70
2022-10-19T14:25:32.757Z,20.00
2022-10-19T14:27:50.630Z,22.35
2022-10-19T14:30:07.912Z,19.30
2022-10-19T14:32:25.219Z,20.13
2022-10-19T14:34:42.312Z,22.85
2022-10-19T14:36:59.573Z,18.52
2022-10-19T14:39:17.600Z,16.75
2022-10-19T14:43:52.083Z,21.70
2022-10-19T14:46:10.349Z,19.33
2022-10-19T14:48:27.351Z,23.65
2022-10-19T14:50:44.263Z,18.95
2022-10-19T14:53:01.171Z,17.30
2022-10-19T14:55:18.430Z,18.27
2022-10-19T14:57:35.566Z,18.20
2022-10-19T14:59:53.416Z,16.77
2022-10-19T15:02:10.383Z,17.60
2022-10-19T15:04:28.008Z,20.13
2022-10-19T15:06:45.926Z,19.67
2022-10-19T15:09:05.404Z,20.25
2022-10-19T15:11:23.734Z,18.52
2022-10-19T15:13:40.999Z,21.17
2022-10-19T15:15:57.994Z,19.08
2022-10-19T15:18:25.336Z,18.90
2022-10-19T15:21:08.248Z,22.35
2022-10-19T15:23:29.743Z,21.08
2022-10-19T15:25:46.873Z,17.60
2022-10-19T15:28:04.187Z,18.88
2022-10-19T15:30:21.255Z,16.92
2022-10-19T15:32:38.864Z,18.08
2022-10-19T15:34:56.425Z,18.63
2022-10-19T15:37:15.740Z,17.35
2022-10-19T15:39:39.798Z,14.35
2022-10-19T15:42:00.455Z,19.05
2022-10-19T15:44:17.490Z,15.70
2022-10-19T15:46:34.531Z,15.68
2022-10-19T15:48:55.235Z,16.60
2022-10-19T15:51:12.620Z,17.23
2022-10-19T15:53:29.525Z,15.35
2022-10-19T15:55:46.479Z,15.63
2022-10-19T15:58:04.476Z,16.65
2022-10-19T16:00:21.757Z,14.13
2022-10-19T16:02:38.738Z,14.10
2022-10-19T16:04:56.088Z,16.83
2022-10-19T16:07:13.117Z,15.55
2022-10-19T16:09:30.338Z,14.07
2022-10-19T16:11:47.682Z,14.82
2022-10-19T16:14:04.763Z,17.42
2022-10-19T16:16:22.112Z,14.05
2022-10-19T16:18:39.216Z,13.48
2022-10-19T16:20:56.153Z,14.45
2022-10-19T16:23:13.368Z,14.10
2022-10-19T16:25:30.495Z,13.48
2022-10-19T16:27:47.843Z,16.55
2022-10-19T16:30:04.790Z,13.68
2022-10-19T16:32:21.812Z,11.48
2022-10-19T16:34:39.077Z,15.02
2022-10-19T16:36:57.063Z,15.98
2022-10-19T16:39:15.285Z,12.75
2022-10-19T16:41:32.604Z,16.10
2022-10-19T16:43:50.947Z,14.77
2022-10-19T16:46:08.152Z,13.05
2022-10-19T16:48:25.161Z,12.73
2022-10-19T16:53:00.608Z,11.07
2022-10-19T16:55:18.845Z,12.52
2022-10-19T16:57:35.823Z,13.20
2022-10-19T17:02:10.689Z,13.57
2022-10-19T17:04:27.960Z,13.55
2022-10-19T17:06:44.914Z,12.70
2022-10-19T17:11:39.108Z,15.40
2022-10-19T17:13:56.142Z,13.23
2022-10-19T17:16:13.085Z,10.20
2022-10-19T17:18:31.329Z,15.05
2022-10-19T17:20:48.264Z,10.73
2022-10-19T17:23:05.512Z,11.93
2022-10-19T17:25:22.721Z,12.32
2022-10-19T17:27:39.997Z,12.85
2022-10-19T17:29:57.343Z,11.65
2022-10-19T17:32:14.656Z,10.60
2022-10-19T17:34:32.100Z,16.08
2022-10-19T17:36:49.720Z,16.55
2022-10-19T17:39:07.664Z,12.95
2022-10-19T17:41:24.999Z,13.40
2022-10-19T17:43:43.290Z,14.45
2022-10-19T17:46:00.577Z,14.13
2022-10-19T17:48:17.618Z,13.15
2022-10-19T17:50:35.713Z,13.80
2022-10-19T17:52:52.799Z,15.07
2022-10-19T17:55:13.114Z,14.15
2022-10-19T17:57:30.889Z,17.88
2022-10-19T17:59:52.840Z,15.30
2022-10-19T18:02:10.182Z,13.57
2022-10-19T18:04:28.092Z,19.92
2022-10-19T18:06:45.429Z,12.25
2022-10-19T18:09:03.520Z,16.15
2022-10-19T18:11:20.854Z,14.40
2022-10-19T18:13:39.083Z,14.73
2022-10-19T18:15:57.126Z,16.00
2022-10-19T18:18:15.360Z,16.05
2022-10-19T18:20:32.678Z,15.60
2022-10-19T18:22:49.993Z,13.07
2022-10-19T18:25:07.034Z,15.57
2022-10-19T18:27:24.122Z,14.48
2022-10-19T18:29:41.098Z,12.35
2022-10-19T18:31:58.147Z,12.68
2022-10-19T18:34:15.468Z,14.43
2022-10-19T18:36:34.725Z,14.35
2022-10-19T18:38:51.781Z,15.88
2022-10-19T18:41:09.128Z,15.50
2022-10-19T18:43:26.473Z,15.15
2022-10-19T18:45:43.770Z,15.68
2022-10-19T18:48:00.913Z,12.70
2022-10-19T18:50:20.688Z,16.58
2022-10-19T18:52:37.749Z,15.40
2022-10-19T18:54:54.659Z,16.60
2022-10-19T18:57:11.620Z,16.83
2022-10-19T18:59:28.641Z,14.68
2022-10-19T19:01:45.952Z,14.00
2022-10-19T19:04:02.987Z,15.23
2022-10-19T19:06:20.293Z,21.17
2022-10-19T19:08:38.457Z,13.52
2022-10-19T19:10:55.835Z,15.35
2022-10-19T19:13:12.764Z,15.48
2022-10-19T19:15:30.035Z,16.58
2022-10-19T19:17:46.979Z,14.70
2022-10-19T19:20:04.090Z,15.98
2022-10-19T19:22:21.377Z,15.80
2022-10-19T19:24:38.420Z,15.02
2022-10-19T19:26:55.768Z,15.20
2022-10-19T19:29:13.489Z,16.92
2022-10-19T19:31:30.772Z,15.70
2022-10-19T19:33:47.808Z,14.40
2022-10-19T19:36:04.860Z,17.38
2022-10-19T19:38:21.842Z,14.30
2022-10-19T19:40:38.778Z,15.00
2022-10-19T19:42:56.041Z,15.45
2022-10-19T19:45:13.957Z,20.65
2022-10-19T19:47:31.192Z,17.17
2022-10-19T19:49:48.275Z,15.18
2022-10-19T19:52:05.274Z,15.80
2022-10-19T19:54:22.612Z,17.33
2022-10-19T19:56:39.651Z,18.75
2022-10-19T19:58:57.634Z,15.18
2022-10-19T20:01:15.005Z,15.38
2022-10-19T20:03:32.164Z,14.05
2022-10-19T20:05:49.205Z,14.68
2022-10-19T20:08:06.456Z,15.00
2022-10-19T20:10:23.578Z,18.02
2022-10-19T20:12:41.459Z,14.88
2022-10-19T20:14:58.754Z,16.73
2022-10-19T20:17:15.718Z,17.70
2022-10-19T20:19:33.027Z,19.95
2022-10-19T20:21:50.054Z,16.48
2022-10-19T20:24:06.991Z,17.63
2022-10-19T20:26:24.177Z,16.75
2022-10-19T20:28:41.298Z,16.50
2022-10-19T20:30:59.347Z,17.05
2022-10-19T20:33:16.643Z,17.95
2022-10-19T20:35:33.978Z,20.02
2022-10-19T20:37:51.074Z,19.05
2022-10-19T20:40:08.900Z,15.70
2022-10-19T20:42:26.125Z,17.70
2022-10-19T20:44:44.030Z,19.20
2022-10-19T20:47:01.113Z,18.25
2022-10-19T20:49:18.144Z,17.80
2022-10-19T20:51:35.168Z,20.58
2022-10-19T20:53:52.371Z,18.90
2022-10-19T20:56:09.616Z,17.38
2022-10-19T20:58:26.907Z,16.55
2022-10-19T21:00:46.280Z,21.13
2022-10-19T21:03:03.917Z,18.38
2022-10-19T21:05:22.072Z,19.45
2022-10-19T21:07:39.369Z,18.65
2022-10-19T21:09:57.233Z,19.10
2022-10-19T21:12:14.273Z,18.40
2022-10-19T21:14:31.665Z,20.08
2022-10-19T21:16:48.953Z,23.00
2022-10-19T21:19:06.258Z,20.45
2022-10-19T21:21:23.326Z,18.17
2022-10-19T21:23:41.670Z,25.58
2022-10-19T21:25:58.712Z,19.83
2022-10-19T21:28:16.938Z,20.60
2022-10-19T21:30:33.894Z,20.38
2022-10-19T21:32:52.171Z,18.23
2022-10-19T21:35:10.552Z,22.42
2022-10-19T21:37:28.642Z,19.45
2022-10-19T21:39:45.912Z,22.00
2022-10-19T21:42:03.977Z,18.65
2022-10-19T21:44:20.995Z,17.25
2022-10-19T21:46:37.979Z,17.83
2022-10-19T21:48:54.911Z,22.20
2022-10-19T21:51:12.313Z,18.90
2022-10-19T21:53:29.230Z,20.05
2022-10-19T21:55:46.472Z,20.13
2022-10-19T21:58:03.420Z,20.33
2022-10-19T22:00:20.790Z,19.27
2022-10-19T22:02:37.743Z,19.55
2022-10-19T22:04:54.663Z,22.33
2022-10-19T22:07:12.973Z,18.05
2022-10-19T22:09:29.968Z,18.02
2022-10-19T22:11:48.355Z,21.13
2022-10-19T22:14:05.353Z,21.45
2022-10-19T22:16:22.660Z,21.52
2022-10-19T22:18:41.060Z,18.02
2022-10-19T22:20:58.116Z,21.77
2022-10-19T22:23:15.035Z,21.05
2022-10-19T22:25:32.020Z,22.92
2022-10-19T22:27:49.097Z,21.17
2022-10-19T22:30:06.664Z,20.90
2022-10-19T22:32:23.916Z,20.95
2022-10-19T22:34:42.220Z,18.08
2022-10-19T22:36:59.272Z,23.52
2022-10-19T22:39:16.251Z,19.35
2022-10-19T22:41:35.726Z,19.13
2022-10-19T22:43:52.739Z,19.15
2022-10-19T22:46:10.059Z,23.75
2022-10-19T22:48:30.307Z,19.95
2022-10-19T22:50:47.356Z,19.75
2022-10-19T22:53:04.394Z,19.85
2022-10-19T22:55:22.742Z,18.75
2022-10-19T22:57:40.156Z,22.42
2022-10-19T22:59:58.743Z,19.38
2022-10-19T23:02:15.768Z,19.27
2022-10-19T23:04:32.922Z,18.45
2022-10-19T23:06:49.977Z,20.25
2022-10-19T23:09:10.355Z,22.70
2022-10-19T23:11:27.446Z,18.70
2022-10-19T23:13:45.898Z,23.15
2022-10-19T23:16:03.307Z,19.70
2022-10-19T23:18:21.721Z,22.58
2022-10-19T23:20:38.723Z,21.25
2022-10-19T23:22:55.968Z,23.38
2022-10-19T23:25:12.987Z,25.52
2022-10-19T23:27:30.429Z,22.60
2022-10-19T23:29:48.741Z,22.10
2022-10-19T23:32:05.689Z,21.83
2022-10-19T23:34:23.109Z,23.17
2022-10-19T23:36:41.317Z,22.00
2022-10-19T23:38:58.738Z,21.52
2022-10-19T23:41:16.164Z,23.80
2022-10-19T23:43:38.835Z,23.55
2022-10-19T23:45:56.056Z,24.45
2022-10-19T23:48:13.160Z,27.00
2022-10-19T23:50:33.752Z,27.50
2022-10-19T23:52:51.137Z,27.25
2022-10-19T23:55:08.220Z,25.80
2022-10-19T23:57:25.225Z,26.25
2022-10-19T23:59:43.537Z,27.42
